createdAt,value
2023-02-07T00:01:07.444Z,11.82
2023-02-07T00:04:10.931Z,12.57
2023-02-07T00:07:14.150Z,10.93
2023-02-07T00:10:17.629Z,10.60
2023-02-07T00:13:20.726Z,10.73
2023-02-07T00:16:26.351Z,10.32
2023-02-07T00:22:32.829Z,9.55
2023-02-07T00:25:36.374Z,10.48
2023-02-07T00:28:40.260Z,10.80
2023-02-07T00:31:43.811Z,10.85
2023-02-07T00:34:50.782Z,11.38
2023-02-07T00:37:55.715Z,13.30
2023-02-07T00:41:01.678Z,16.48
2023-02-07T00:44:06.187Z,12.95
2023-02-07T00:47:09.538Z,10.82
2023-02-07T00:50:14.606Z,14.10
2023-02-07T00:53:18.976Z,14.95
2023-02-07T00:56:24.745Z,14.77
2023-02-07T00:59:28.272Z,14.95
2023-02-07T01:02:31.690Z,16.35
2023-02-07T01:05:35.657Z,15.70
2023-02-07T01:08:39.749Z,13.27
2023-02-07T01:11:43.326Z,14.75
2023-02-07T01:14:46.634Z,13.30
2023-02-07T01:17:50.387Z,13.15
2023-02-07T01:20:53.626Z,13.85
2023-02-07T01:23:57.412Z,11.85
2023-02-07T01:27:00.635Z,11.38
2023-02-07T01:30:05.349Z,12.10
2023-02-07T01:33:08.907Z,13.93
2023-02-07T01:36:14.940Z,12.02
2023-02-07T01:39:18.178Z,13.30
2023-02-07T01:42:25.220Z,12.95
2023-02-07T01:45:35.767Z,13.45
2023-02-07T01:48:39.484Z,13.43
2023-02-07T01:51:46.986Z,13.20
2023-02-07T01:54:55.145Z,13.07
2023-02-07T01:57:59.185Z,14.05
2023-02-07T02:01:05.811Z,13.68
2023-02-07T02:04:09.161Z,12.45
2023-02-07T02:07:13.974Z,13.50
2023-02-07T02:10:23.653Z,14.87
2023-02-07T02:13:29.707Z,14.20
2023-02-07T02:17:00.346Z,12.37
2023-02-07T02:20:29.263Z,12.65
2023-02-07T02:23:43.753Z,12.48
2023-02-07T02:27:18.239Z,12.60
2023-02-07T02:30:53.028Z,12.27
2023-02-07T02:34:22.900Z,11.45
2023-02-07T02:37:40.831Z,11.77
2023-02-07T02:41:17.300Z,12.10
2023-02-07T02:44:46.384Z,13.03
2023-02-07T02:47:52.155Z,12.05
2023-02-07T02:50:56.809Z,12.05
2023-02-07T02:54:02.613Z,12.35
2023-02-07T02:57:58.025Z,12.95
2023-02-07T03:01:36.041Z,12.07
2023-02-07T03:05:24.560Z,12.63
2023-02-07T03:08:44.226Z,12.43
2023-02-07T03:12:19.417Z,12.32
2023-02-07T03:15:35.614Z,12.20
2023-02-07T03:19:06.531Z,12.80
2023-02-07T03:22:13.456Z,12.95
2023-02-07T03:25:20.962Z,14.23
2023-02-07T03:28:26.669Z,11.40
2023-02-07T03:31:30.786Z,12.80
2023-02-07T03:35:00.884Z,12.18
2023-02-07T03:38:05.197Z,11.50
2023-02-07T03:41:16.853Z,10.85
2023-02-07T03:44:22.343Z,11.85
2023-02-07T03:47:26.766Z,11.40
2023-02-07T03:50:29.946Z,12.10
2023-02-07T03:53:33.588Z,11.27
2023-02-07T03:56:37.651Z,13.15
2023-02-07T03:59:41.048Z,10.30
2023-02-07T04:02:44.257Z,10.95
2023-02-07T04:05:49.662Z,11.40
2023-02-07T04:08:52.871Z,11.23
2023-02-07T04:11:56.388Z,11.77
2023-02-07T04:15:01.242Z,11.63
2023-02-07T04:18:05.949Z,12.45
2023-02-07T04:21:10.962Z,11.65
2023-02-07T04:27:18.085Z,10.75
2023-02-07T04:30:21.717Z,11.50
2023-02-07T04:33:24.826Z,11.90
2023-02-07T04:36:29.986Z,12.15
2023-02-07T04:39:33.293Z,11.75
2023-02-07T04:42:36.719Z,11.63
2023-02-07T04:45:40.144Z,10.30
2023-02-07T04:48:43.842Z,11.85
2023-02-07T04:51:47.030Z,12.15
2023-02-07T04:54:50.477Z,13.23
2023-02-07T04:57:53.637Z,13.68
2023-02-07T05:00:57.396Z,16.05
2023-02-07T05:04:00.560Z,11.23
2023-02-07T05:07:04.939Z,11.60
2023-02-07T05:10:09.865Z,11.82
2023-02-07T05:13:13.469Z,14.13
2023-02-07T05:16:17.216Z,11.05
2023-02-07T05:19:20.833Z,11.57
2023-02-07T05:22:24.403Z,11.93
2023-02-07T05:25:27.989Z,10.70
2023-02-07T05:28:31.191Z,10.90
2023-02-07T05:31:53.153Z,11.32
2023-02-07T05:35:11.850Z,11.00
2023-02-07T05:38:17.993Z,11.63
2023-02-07T05:41:21.106Z,12.32
2023-02-07T05:44:24.458Z,12.23
2023-02-07T05:47:27.752Z,14.90
2023-02-07T05:50:31.688Z,11.57
2023-02-07T05:53:39.616Z,13.25
2023-02-07T05:56:42.977Z,12.82
2023-02-07T05:59:46.063Z,12.45
2023-02-07T06:02:49.910Z,13.40
2023-02-07T06:05:53.411Z,12.80
2023-02-07T06:08:58.016Z,12.85
2023-02-07T06:12:03.128Z,15.45
2023-02-07T06:15:11.031Z,15.48
2023-02-07T06:18:15.482Z,14.27
2023-02-07T06:21:20.343Z,15.10
2023-02-07T06:24:23.863Z,14.48
2023-02-07T06:27:28.089Z,15.43
2023-02-07T06:30:31.730Z,14.38
2023-02-07T06:33:35.213Z,14.52
2023-02-07T06:36:39.059Z,15.75
2023-02-07T06:39:42.161Z,15.73
2023-02-07T06:42:45.954Z,16.50
2023-02-07T06:45:49.224Z,14.87
2023-02-07T06:48:52.829Z,15.40
2023-02-07T06:51:56.152Z,17.15
2023-02-07T06:54:59.606Z,17.85
2023-02-07T06:58:03.003Z,18.92
2023-02-07T07:01:06.810Z,17.67
2023-02-07T07:04:10.073Z,18.30
2023-02-07T07:07:14.062Z,18.83
2023-02-07T07:10:17.465Z,17.98
2023-02-07T07:13:21.277Z,19.70
2023-02-07T07:16:24.119Z,19.27
2023-02-07T07:19:28.247Z,18.55
2023-02-07T07:22:31.625Z,20.73
2023-02-07T07:25:35.368Z,20.00
2023-02-07T07:28:39.202Z,17.58
2023-02-07T07:31:46.662Z,20.33
2023-02-07T07:34:50.499Z,20.37
2023-02-07T07:37:54.246Z,19.25
2023-02-07T07:40:57.702Z,21.62
2023-02-07T07:44:01.066Z,22.60
2023-02-07T07:47:04.553Z,19.98
2023-02-07T07:50:08.634Z,22.10
2023-02-07T07:53:11.770Z,21.17
2023-02-07T07:56:15.082Z,20.20
2023-02-07T07:59:23.860Z,22.85
2023-02-07T08:02:28.388Z,22.17
2023-02-07T08:05:32.048Z,21.62
2023-02-07T08:08:35.145Z,23.45
2023-02-07T08:11:47.128Z,23.58
2023-02-07T08:14:50.202Z,21.73
2023-02-07T08:17:53.711Z,21.73
2023-02-07T08:20:57.007Z,23.80
2023-02-07T08:24:00.685Z,22.27
2023-02-07T08:27:04.132Z,22.62
2023-02-07T08:30:09.451Z,21.70
2023-02-07T08:33:12.771Z,23.10
2023-02-07T08:36:16.222Z,22.15
2023-02-07T08:39:21.022Z,18.10
2023-02-07T08:42:25.765Z,18.12
2023-02-07T08:45:29.088Z,18.77
2023-02-07T08:48:33.319Z,19.95
2023-02-07T08:51:36.573Z,15.88
2023-02-07T08:54:40.316Z,18.75
2023-02-07T08:57:44.950Z,14.90
2023-02-07T09:00:48.481Z,18.08
2023-02-07T09:03:56.796Z,17.92
2023-02-07T09:07:01.585Z,17.55
2023-02-07T09:10:07.585Z,17.93
2023-02-07T09:13:12.786Z,18.67
2023-02-07T09:16:16.145Z,20.45
2023-02-07T09:19:20.943Z,18.30
2023-02-07T09:22:24.028Z,19.75
2023-02-07T09:25:27.466Z,12.85
2023-02-07T09:28:30.916Z,11.27
2023-02-07T09:31:34.960Z,9.63
2023-02-07T09:34:39.287Z,16.08
2023-02-07T09:37:49.414Z,16.40
2023-02-07T09:40:54.223Z,15.63
2023-02-07T09:44:15.961Z,17.33
2023-02-07T09:47:22.312Z,11.15
2023-02-07T09:50:37.982Z,16.83
2023-02-07T09:53:45.301Z,16.23
2023-02-07T09:56:48.827Z,17.67
2023-02-07T09:59:55.941Z,13.68
2023-02-07T10:03:09.606Z,12.68
2023-02-07T10:06:20.694Z,12.43
2023-02-07T10:09:29.214Z,16.25
2023-02-07T10:13:02.279Z,12.15
2023-02-07T10:16:08.188Z,15.48
2023-02-07T10:19:23.719Z,16.70
2023-02-07T10:22:31.754Z,17.83
2023-02-07T10:26:15.671Z,13.30
2023-02-07T10:29:37.723Z,14.13
2023-02-07T10:32:43.564Z,13.23
2023-02-07T10:39:28.248Z,15.25
2023-02-07T10:42:33.804Z,12.88
2023-02-07T10:45:40.582Z,16.35
2023-02-07T10:48:43.948Z,13.85
2023-02-07T10:51:47.865Z,18.02
2023-02-07T10:54:54.697Z,17.08
2023-02-07T10:58:06.426Z,15.02
2023-02-07T11:01:20.857Z,14.82
2023-02-07T11:04:44.455Z,16.55
2023-02-07T11:08:27.294Z,15.60
2023-02-07T11:11:33.021Z,15.98
2023-02-07T11:14:36.405Z,17.10
2023-02-07T11:17:48.365Z,16.87
2023-02-07T11:20:53.424Z,14.98
2023-02-07T11:24:05.228Z,15.95
2023-02-07T11:27:11.204Z,14.98
2023-02-07T11:30:21.692Z,17.55
2023-02-07T11:33:28.292Z,16.05
2023-02-07T11:36:34.002Z,16.87
2023-02-07T11:42:41.561Z,15.45
2023-02-07T11:45:50.729Z,16.08
2023-02-07T11:48:57.778Z,14.75
2023-02-07T11:52:02.263Z,5.80
2023-02-07T11:55:09.004Z,15.00
2023-02-07T11:58:21.482Z,15.10
2023-02-07T12:01:29.181Z,15.38
2023-02-07T12:04:38.576Z,15.88
2023-02-07T12:07:47.085Z,13.93
2023-02-07T12:10:55.126Z,16.37
2023-02-07T12:14:09.777Z,15.50
2023-02-07T12:17:17.957Z,15.60
2023-02-07T12:20:25.464Z,12.57
2023-02-07T12:23:54.603Z,16.23
2023-02-07T12:26:57.683Z,14.38
2023-02-07T12:30:18.367Z,16.52
2023-02-07T12:33:23.042Z,15.90
2023-02-07T12:36:36.701Z,15.77
2023-02-07T12:39:44.708Z,12.73
2023-02-07T12:43:13.628Z,14.45
2023-02-07T12:46:26.157Z,14.38
2023-02-07T12:49:35.393Z,13.85
2023-02-07T12:52:53.664Z,13.25
2023-02-07T12:56:02.648Z,13.25
2023-02-07T12:59:27.941Z,14.40
2023-02-07T13:03:08.858Z,14.07
2023-02-07T13:06:17.811Z,13.73
2023-02-07T13:09:36.781Z,11.32
2023-02-07T13:12:52.034Z,11.93
2023-02-07T13:19:16.088Z,12.37
2023-02-07T13:25:38.646Z,10.63
2023-02-07T13:28:57.615Z,10.93
2023-02-07T13:32:03.409Z,11.65
2023-02-07T13:35:13.033Z,12.18
2023-02-07T13:38:19.051Z,13.18
2023-02-07T13:41:34.603Z,10.65
2023-02-07T13:44:49.489Z,11.73
2023-02-07T13:48:24.788Z,13.10
2023-02-07T13:51:44.487Z,11.88
2023-02-07T13:55:06.183Z,12.52
2023-02-07T13:58:54.984Z,11.73
2023-02-07T14:01:59.792Z,12.57
2023-02-07T14:05:09.585Z,13.55
2023-02-07T14:08:16.400Z,13.38
2023-02-07T14:11:50.620Z,14.25
2023-02-07T14:15:02.617Z,13.90
2023-02-07T14:18:29.378Z,11.30
2023-02-07T14:21:40.365Z,12.32
2023-02-07T14:25:03.720Z,12.95
2023-02-07T14:28:07.673Z,13.15
2023-02-07T14:31:25.974Z,13.03
2023-02-07T14:34:59.630Z,11.95
2023-02-07T14:38:17.968Z,11.52
2023-02-07T14:41:29.281Z,13.10
2023-02-07T14:44:36.201Z,12.15
2023-02-07T14:47:39.428Z,10.98
2023-02-07T14:50:52.177Z,13.60
2023-02-07T14:54:16.807Z,12.43
2023-02-07T14:57:44.006Z,11.33
2023-02-07T15:00:50.660Z,13.52
2023-02-07T15:04:02.501Z,13.48
2023-02-07T15:07:12.715Z,13.32
2023-02-07T15:10:17.571Z,14.55
2023-02-07T15:13:44.430Z,13.95
2023-02-07T15:16:48.558Z,13.73
2023-02-07T15:19:56.346Z,13.50
2023-02-07T15:23:02.137Z,14.27
2023-02-07T15:29:26.182Z,12.13
2023-02-07T15:32:33.743Z,13.88
2023-02-07T15:35:42.144Z,14.48
2023-02-07T15:38:46.260Z,14.38
2023-02-07T15:41:51.962Z,14.55
2023-02-07T15:48:14.634Z,14.30
2023-02-07T15:51:25.558Z,14.25
2023-02-07T15:54:29.283Z,16.87
2023-02-07T15:57:37.344Z,16.55
2023-02-07T16:00:41.764Z,16.70
2023-02-07T16:03:46.807Z,15.23
2023-02-07T16:07:02.916Z,15.37
2023-02-07T16:10:38.085Z,15.25
2023-02-07T16:14:01.265Z,15.23
2023-02-07T16:17:04.845Z,15.77
2023-02-07T16:20:13.794Z,18.20
2023-02-07T16:23:17.780Z,17.48
2023-02-07T16:26:25.561Z,15.93
2023-02-07T16:29:29.517Z,15.65
2023-02-07T16:32:34.564Z,15.10
2023-02-07T16:35:37.982Z,14.80
2023-02-07T16:38:40.978Z,15.57
2023-02-07T16:41:47.235Z,16.23
2023-02-07T16:44:50.613Z,16.37
2023-02-07T16:47:55.522Z,15.68
2023-02-07T16:51:01.546Z,16.30
2023-02-07T16:54:05.740Z,16.60
2023-02-07T16:57:10.622Z,15.43
2023-02-07T17:00:17.224Z,16.75
2023-02-07T17:03:22.228Z,14.63
2023-02-07T17:09:31.501Z,13.85
2023-02-07T17:12:35.249Z,14.75
2023-02-07T17:15:38.562Z,16.08
2023-02-07T17:18:42.448Z,14.35
2023-02-07T17:21:48.156Z,16.90
2023-02-07T17:24:54.163Z,16.08
2023-02-07T17:27:58.364Z,15.45
2023-02-07T17:31:01.943Z,14.93
2023-02-07T17:34:06.192Z,16.48
2023-02-07T17:37:13.535Z,17.83
2023-02-07T17:40:23.206Z,19.23
2023-02-07T17:43:27.889Z,18.37
2023-02-07T17:46:35.711Z,18.10
2023-02-07T17:49:47.163Z,19.87
2023-02-07T17:52:53.471Z,20.77
2023-02-07T17:55:59.054Z,20.30
2023-02-07T17:59:06.405Z,20.97
2023-02-07T18:02:11.388Z,20.05
2023-02-07T18:05:18.835Z,21.23
2023-02-07T18:08:24.496Z,21.45
2023-02-07T18:11:28.943Z,19.07
2023-02-07T18:14:33.301Z,23.60
2023-02-07T18:17:39.790Z,39.25
2023-02-07T18:20:45.765Z,40.47
2023-02-07T18:23:54.508Z,45.80
2023-02-07T18:26:58.991Z,46.63
2023-02-07T18:30:06.995Z,31.42
2023-02-07T18:33:14.331Z,27.20
2023-02-07T18:36:23.748Z,41.95
2023-02-07T18:39:30.031Z,50.72
2023-02-07T18:42:35.233Z,48.85
2023-02-07T18:45:43.715Z,56.42
2023-02-07T18:48:53.124Z,49.58
2023-02-07T18:51:58.558Z,27.02
2023-02-07T18:58:08.931Z,15.40
2023-02-07T19:01:19.315Z,16.08
2023-02-07T19:04:25.553Z,19.10
2023-02-07T19:07:31.533Z,19.30
2023-02-07T19:10:35.670Z,18.37
2023-02-07T19:13:42.316Z,16.75
2023-02-07T19:16:50.138Z,20.15
2023-02-07T19:19:54.701Z,21.80
2023-02-07T19:22:59.243Z,18.17
2023-02-07T19:29:12.224Z,15.32
2023-02-07T19:32:17.613Z,26.33
2023-02-07T19:35:22.789Z,29.90
2023-02-07T19:38:27.931Z,21.30
2023-02-07T19:41:33.536Z,16.77
2023-02-07T19:44:40.382Z,16.67
2023-02-07T19:47:48.136Z,15.93
2023-02-07T19:51:06.883Z,15.50
2023-02-07T19:54:11.589Z,14.85
2023-02-07T19:57:17.944Z,16.42
2023-02-07T20:00:24.311Z,15.60
2023-02-07T20:03:33.376Z,14.30
2023-02-07T20:06:39.358Z,15.10
2023-02-07T20:09:59.620Z,14.57
2023-02-07T20:13:07.010Z,14.25
2023-02-07T20:16:18.872Z,15.27
2023-02-07T20:19:25.151Z,14.02
2023-02-07T20:22:35.646Z,14.50
2023-02-07T20:25:40.968Z,14.23
2023-02-07T20:28:50.724Z,15.18
2023-02-07T20:31:57.906Z,15.13
2023-02-07T20:35:03.583Z,13.90
2023-02-07T20:38:09.745Z,15.73
2023-02-07T20:41:29.725Z,14.82
2023-02-07T20:44:35.611Z,14.18
2023-02-07T20:47:42.888Z,14.13
2023-02-07T20:50:49.228Z,17.42
2023-02-07T20:53:57.636Z,17.33
2023-02-07T20:57:02.840Z,19.98
2023-02-07T21:03:16.124Z,18.52
2023-02-07T21:06:24.662Z,17.30
2023-02-07T21:09:29.845Z,16.45
2023-02-07T21:12:34.818Z,18.50
2023-02-07T21:15:40.064Z,18.12
2023-02-07T21:18:47.962Z,16.95
2023-02-07T21:21:52.055Z,16.65
2023-02-07T21:24:56.312Z,21.48
2023-02-07T21:28:00.426Z,22.52
2023-02-07T21:31:10.223Z,22.08
2023-02-07T21:34:16.175Z,23.17
2023-02-07T21:37:21.201Z,25.92
2023-02-07T21:40:26.525Z,22.13
2023-02-07T21:43:30.416Z,20.52
2023-02-07T21:46:39.594Z,24.85
2023-02-07T21:49:55.740Z,25.67
2023-02-07T21:53:04.423Z,21.10
2023-02-07T21:56:10.924Z,20.10
2023-02-07T21:59:16.415Z,18.55
2023-02-07T22:02:20.590Z,21.15
2023-02-07T22:05:24.506Z,20.47
2023-02-07T22:08:27.579Z,28.40
2023-02-07T22:11:33.383Z,23.60
2023-02-07T22:17:39.505Z,21.95
2023-02-07T22:20:42.791Z,24.45
2023-02-07T22:23:46.484Z,25.60
2023-02-07T22:26:49.684Z,24.87
2023-02-07T22:29:53.269Z,24.35
2023-02-07T22:32:56.460Z,26.15
2023-02-07T22:36:00.127Z,26.33
2023-02-07T22:39:05.423Z,19.98
2023-02-07T22:42:08.873Z,20.15
2023-02-07T22:45:12.105Z,19.75
2023-02-07T22:48:16.953Z,19.40
2023-02-07T22:54:24.598Z,24.20
2023-02-07T22:57:27.659Z,22.13
2023-02-07T23:00:31.141Z,27.23
2023-02-07T23:03:34.971Z,30.92
2023-02-07T23:06:38.380Z,26.67
2023-02-07T23:09:41.597Z,21.83
2023-02-07T23:12:45.122Z,20.27
2023-02-07T23:15:48.768Z,18.58
2023-02-07T23:18:54.003Z,21.33
2023-02-07T23:22:00.636Z,22.50
2023-02-07T23:25:05.538Z,22.65
2023-02-07T23:28:08.745Z,27.20
2023-02-07T23:31:14.172Z,28.77
2023-02-07T23:34:17.645Z,30.00
2023-02-07T23:37:22.528Z,27.87
2023-02-07T23:40:26.000Z,30.43
2023-02-07T23:43:31.088Z,32.47
2023-02-07T23:46:35.752Z,32.07
2023-02-07T23:49:39.378Z,33.47
2023-02-07T23:52:42.851Z,30.90
2023-02-07T23:55:46.423Z,30.35
2023-02-07T23:58:51.028Z,29.02
